sensor_id;sensor_type;location;lat;lon;timestamp;P1;durP1;ratioP1;P2;durP2;ratioP2
57217;SDS011;43078;52.972;6.482;2023-04-22T00:00:05;6.35;;;4.45;;
57217;SDS011;43078;52.972;6.482;2023-04-22T00:02:33;6.72;;;4.60;;
57217;SDS011;43078;52.972;6.482;2023-04-22T00:05:01;6.60;;;4.43;;
57217;SDS011;43078;52.972;6.482;2023-04-22T00:07:27;6.78;;;4.35;;
57217;SDS011;43078;52.972;6.482;2023-04-22T00:09:53;6.95;;;4.70;;
57217;SDS011;43078;52.972;6.482;2023-04-22T00:12:18;5.97;;;4.45;;
57217;SDS011;43078;52.972;6.482;2023-04-22T00:14:44;7.63;;;4.70;;
57217;SDS011;43078;52.972;6.482;2023-04-22T00:17:10;6.13;;;4.07;;
57217;SDS011;43078;52.972;6.482;2023-04-22T00:19:36;6.43;;;4.47;;
57217;SDS011;43078;52.972;6.482;2023-04-22T00:22:02;6.78;;;4.65;;
57217;SDS011;43078;52.972;6.482;2023-04-22T00:24:28;7.68;;;4.65;;
57217;SDS011;43078;52.972;6.482;2023-04-22T00:26:53;6.35;;;4.78;;
57217;SDS011;43078;52.972;6.482;2023-04-22T00:29:19;6.43;;;4.78;;
57217;SDS011;43078;52.972;6.482;2023-04-22T00:31:45;6.40;;;4.50;;
57217;SDS011;43078;52.972;6.482;2023-04-22T00:34:10;6.93;;;4.90;;
57217;SDS011;43078;52.972;6.482;2023-04-22T00:36:36;7.47;;;5.05;;
57217;SDS011;43078;52.972;6.482;2023-04-22T00:39:01;6.88;;;5.22;;
57217;SDS011;43078;52.972;6.482;2023-04-22T00:41:27;7.88;;;5.10;;
57217;SDS011;43078;52.972;6.482;2023-04-22T00:43:54;6.60;;;5.05;;
57217;SDS011;43078;52.972;6.482;2023-04-22T00:46:21;6.72;;;5.05;;
57217;SDS011;43078;52.972;6.482;2023-04-22T00:48:46;7.05;;;5.35;;
57217;SDS011;43078;52.972;6.482;2023-04-22T00:51:13;7.75;;;5.75;;
57217;SDS011;43078;52.972;6.482;2023-04-22T00:53:38;7.85;;;6.00;;
57217;SDS011;43078;52.972;6.482;2023-04-22T00:56:04;7.90;;;5.28;;
57217;SDS011;43078;52.972;6.482;2023-04-22T00:58:30;6.88;;;5.47;;
57217;SDS011;43078;52.972;6.482;2023-04-22T01:00:56;8.38;;;5.45;;
57217;SDS011;43078;52.972;6.482;2023-04-22T01:03:22;7.30;;;5.80;;
57217;SDS011;43078;52.972;6.482;2023-04-22T01:05:50;7.65;;;5.60;;
57217;SDS011;43078;52.972;6.482;2023-04-22T01:08:16;9.25;;;6.00;;
57217;SDS011;43078;52.972;6.482;2023-04-22T01:10:42;8.65;;;6.55;;
57217;SDS011;43078;52.972;6.482;2023-04-22T01:13:08;7.90;;;6.43;;
57217;SDS011;43078;52.972;6.482;2023-04-22T01:15:34;8.98;;;5.97;;
57217;SDS011;43078;52.972;6.482;2023-04-22T01:17:59;7.85;;;6.10;;
57217;SDS011;43078;52.972;6.482;2023-04-22T01:20:26;7.28;;;5.88;;
57217;SDS011;43078;52.972;6.482;2023-04-22T01:22:55;8.90;;;5.93;;
57217;SDS011;43078;52.972;6.482;2023-04-22T01:25:22;7.90;;;6.10;;
57217;SDS011;43078;52.972;6.482;2023-04-22T01:27:51;8.60;;;6.07;;
57217;SDS011;43078;52.972;6.482;2023-04-22T01:30:18;11.77;;;6.53;;
57217;SDS011;43078;52.972;6.482;2023-04-22T01:32:44;8.15;;;6.03;;
57217;SDS011;43078;52.972;6.482;2023-04-22T01:35:10;7.57;;;6.18;;
57217;SDS011;43078;52.972;6.482;2023-04-22T01:37:36;7.88;;;6.30;;
57217;SDS011;43078;52.972;6.482;2023-04-22T01:40:02;7.45;;;6.18;;
57217;SDS011;43078;52.972;6.482;2023-04-22T01:42:31;10.02;;;6.30;;
57217;SDS011;43078;52.972;6.482;2023-04-22T01:44:57;7.20;;;5.97;;
57217;SDS011;43078;52.972;6.482;2023-04-22T01:47:23;7.55;;;6.40;;
57217;SDS011;43078;52.972;6.482;2023-04-22T01:49:49;8.48;;;6.53;;
57217;SDS011;43078;52.972;6.482;2023-04-22T01:52:15;9.13;;;6.40;;
57217;SDS011;43078;52.972;6.482;2023-04-22T01:54:41;7.68;;;6.25;;
57217;SDS011;43078;52.972;6.482;2023-04-22T01:57:08;7.70;;;5.78;;
57217;SDS011;43078;52.972;6.482;2023-04-22T01:59:35;7.75;;;5.88;;
57217;SDS011;43078;52.972;6.482;2023-04-22T02:02:01;8.38;;;6.60;;
57217;SDS011;43078;52.972;6.482;2023-04-22T02:04:26;10.07;;;6.32;;
57217;SDS011;43078;52.972;6.482;2023-04-22T02:06:52;8.02;;;6.15;;
57217;SDS011;43078;52.972;6.482;2023-04-22T02:09:17;8.73;;;6.22;;
57217;SDS011;43078;52.972;6.482;2023-04-22T02:11:43;7.57;;;6.07;;
57217;SDS011;43078;52.972;6.482;2023-04-22T02:14:08;8.23;;;6.10;;
57217;SDS011;43078;52.972;6.482;2023-04-22T02:16:34;7.80;;;6.28;;
57217;SDS011;43078;52.972;6.482;2023-04-22T02:19:00;7.10;;;5.85;;
57217;SDS011;43078;52.972;6.482;2023-04-22T02:21:28;8.05;;;6.47;;
57217;SDS011;43078;52.972;6.482;2023-04-22T02:23:56;9.70;;;6.15;;
57217;SDS011;43078;52.972;6.482;2023-04-22T02:26:22;7.00;;;6.00;;
57217;SDS011;43078;52.972;6.482;2023-04-22T02:28:48;8.90;;;6.55;;
57217;SDS011;43078;52.972;6.482;2023-04-22T02:31:14;8.32;;;6.38;;
57217;SDS011;43078;52.972;6.482;2023-04-22T02:33:40;8.65;;;6.72;;
57217;SDS011;43078;52.972;6.482;2023-04-22T02:36:05;7.63;;;6.55;;
57217;SDS011;43078;52.972;6.482;2023-04-22T02:38:31;8.23;;;6.15;;
57217;SDS011;43078;52.972;6.482;2023-04-22T02:40:57;8.70;;;6.68;;
57217;SDS011;43078;52.972;6.482;2023-04-22T02:43:22;7.32;;;6.10;;
57217;SDS011;43078;52.972;6.482;2023-04-22T02:45:48;8.60;;;6.82;;
57217;SDS011;43078;52.972;6.482;2023-04-22T02:48:13;9.95;;;6.47;;
57217;SDS011;43078;52.972;6.482;2023-04-22T02:50:39;8.32;;;6.72;;
57217;SDS011;43078;52.972;6.482;2023-04-22T02:53:05;8.70;;;6.90;;
57217;SDS011;43078;52.972;6.482;2023-04-22T02:55:31;8.93;;;6.45;;
57217;SDS011;43078;52.972;6.482;2023-04-22T02:57:57;9.80;;;6.90;;
57217;SDS011;43078;52.972;6.482;2023-04-22T03:00:23;9.45;;;7.07;;
57217;SDS011;43078;52.972;6.482;2023-04-22T03:02:48;9.07;;;6.65;;
57217;SDS011;43078;52.972;6.482;2023-04-22T03:05:14;8.57;;;6.55;;
57217;SDS011;43078;52.972;6.482;2023-04-22T03:07:40;9.05;;;7.25;;
57217;SDS011;43078;52.972;6.482;2023-04-22T03:10:07;7.82;;;6.53;;
57217;SDS011;43078;52.972;6.482;2023-04-22T03:12:33;10.30;;;6.53;;
57217;SDS011;43078;52.972;6.482;2023-04-22T03:14:58;7.63;;;6.35;;
57217;SDS011;43078;52.972;6.482;2023-04-22T03:17:24;10.07;;;7.05;;
57217;SDS011;43078;52.972;6.482;2023-04-22T03:19:50;8.77;;;6.78;;
57217;SDS011;43078;52.972;6.482;2023-04-22T03:22:15;8.85;;;6.88;;
57217;SDS011;43078;52.972;6.482;2023-04-22T03:24:41;8.88;;;7.00;;
57217;SDS011;43078;52.972;6.482;2023-04-22T03:27:07;8.82;;;7.15;;
57217;SDS011;43078;52.972;6.482;2023-04-22T03:29:34;8.05;;;6.75;;
57217;SDS011;43078;52.972;6.482;2023-04-22T03:31:59;9.10;;;6.85;;
57217;SDS011;43078;52.972;6.482;2023-04-22T03:34:25;8.27;;;6.78;;
57217;SDS011;43078;52.972;6.482;2023-04-22T03:36:50;8.48;;;6.90;;
57217;SDS011;43078;52.972;6.482;2023-04-22T03:39:16;8.75;;;6.45;;
57217;SDS011;43078;52.972;6.482;2023-04-22T03:41:42;8.55;;;6.65;;
57217;SDS011;43078;52.972;6.482;2023-04-22T03:44:07;7.57;;;6.53;;
57217;SDS011;43078;52.972;6.482;2023-04-22T03:46:33;8.45;;;6.40;;
57217;SDS011;43078;52.972;6.482;2023-04-22T03:48:58;7.97;;;6.60;;
57217;SDS011;43078;52.972;6.482;2023-04-22T03:51:24;7.80;;;6.18;;
57217;SDS011;43078;52.972;6.482;2023-04-22T03:53:50;8.60;;;6.63;;
57217;SDS011;43078;52.972;6.482;2023-04-22T03:56:15;7.95;;;6.63;;
57217;SDS011;43078;52.972;6.482;2023-04-22T03:58:41;7.78;;;6.43;;
57217;SDS011;43078;52.972;6.482;2023-04-22T04:01:06;8.75;;;7.00;;
57217;SDS011;43078;52.972;6.482;2023-04-22T04:03:32;7.20;;;6.00;;
57217;SDS011;43078;52.972;6.482;2023-04-22T04:05:57;10.65;;;6.43;;
57217;SDS011;43078;52.972;6.482;2023-04-22T04:08:23;7.28;;;5.95;;
57217;SDS011;43078;52.972;6.482;2023-04-22T04:10:49;9.38;;;6.22;;
57217;SDS011;43078;52.972;6.482;2023-04-22T04:13:14;8.20;;;6.30;;
57217;SDS011;43078;52.972;6.482;2023-04-22T04:15:40;8.15;;;6.15;;
57217;SDS011;43078;52.972;6.482;2023-04-22T04:18:05;8.00;;;6.20;;
57217;SDS011;43078;52.972;6.482;2023-04-22T04:20:31;6.78;;;5.68;;
57217;SDS011;43078;52.972;6.482;2023-04-22T04:22:57;7.93;;;5.93;;
57217;SDS011;43078;52.972;6.482;2023-04-22T04:25:23;7.60;;;5.68;;
57217;SDS011;43078;52.972;6.482;2023-04-22T04:27:48;7.40;;;5.97;;
57217;SDS011;43078;52.972;6.482;2023-04-22T04:30:15;7.82;;;5.78;;
57217;SDS011;43078;52.972;6.482;2023-04-22T04:32:41;8.20;;;6.07;;
57217;SDS011;43078;52.972;6.482;2023-04-22T04:35:09;7.22;;;6.15;;
57217;SDS011;43078;52.972;6.482;2023-04-22T04:37:38;9.27;;;6.00;;
57217;SDS011;43078;52.972;6.482;2023-04-22T04:40:05;8.88;;;6.18;;
57217;SDS011;43078;52.972;6.482;2023-04-22T04:42:31;7.68;;;6.13;;
57217;SDS011;43078;52.972;6.482;2023-04-22T04:44:57;8.85;;;6.20;;
57217;SDS011;43078;52.972;6.482;2023-04-22T04:47:23;7.95;;;6.70;;
57217;SDS011;43078;52.972;6.482;2023-04-22T04:49:49;9.10;;;6.80;;
57217;SDS011;43078;52.972;6.482;2023-04-22T04:52:17;8.82;;;6.80;;
57217;SDS011;43078;52.972;6.482;2023-04-22T04:54:43;8.88;;;6.10;;
57217;SDS011;43078;52.972;6.482;2023-04-22T04:57:09;9.65;;;6.35;;
57217;SDS011;43078;52.972;6.482;2023-04-22T04:59:34;8.35;;;6.82;;
57217;SDS011;43078;52.972;6.482;2023-04-22T05:02:00;8.75;;;7.10;;
57217;SDS011;43078;52.972;6.482;2023-04-22T05:04:26;8.27;;;6.45;;
57217;SDS011;43078;52.972;6.482;2023-04-22T05:06:51;10.43;;;6.93;;
57217;SDS011;43078;52.972;6.482;2023-04-22T05:09:17;8.35;;;6.13;;
57217;SDS011;43078;52.972;6.482;2023-04-22T05:11:42;8.57;;;6.80;;
57217;SDS011;43078;52.972;6.482;2023-04-22T05:14:08;8.27;;;6.70;;
57217;SDS011;43078;52.972;6.482;2023-04-22T05:16:34;8.93;;;6.90;;
57217;SDS011;43078;52.972;6.482;2023-04-22T05:19:00;9.70;;;7.43;;
57217;SDS011;43078;52.972;6.482;2023-04-22T05:21:25;9.35;;;7.28;;
57217;SDS011;43078;52.972;6.482;2023-04-22T05:23:51;8.18;;;6.15;;
57217;SDS011;43078;52.972;6.482;2023-04-22T05:26:16;8.77;;;6.60;;
57217;SDS011;43078;52.972;6.482;2023-04-22T05:28:45;9.02;;;6.60;;
57217;SDS011;43078;52.972;6.482;2023-04-22T05:31:11;8.73;;;6.45;;
57217;SDS011;43078;52.972;6.482;2023-04-22T05:33:36;9.30;;;7.30;;
57217;SDS011;43078;52.972;6.482;2023-04-22T05:36:02;8.40;;;6.45;;
57217;SDS011;43078;52.972;6.482;2023-04-22T05:38:27;8.32;;;6.65;;
57217;SDS011;43078;52.972;6.482;2023-04-22T05:40:53;8.45;;;7.10;;
57217;SDS011;43078;52.972;6.482;2023-04-22T05:43:19;7.93;;;6.15;;
57217;SDS011;43078;52.972;6.482;2023-04-22T05:45:44;8.70;;;6.32;;
57217;SDS011;43078;52.972;6.482;2023-04-22T05:48:10;8.75;;;6.47;;
57217;SDS011;43078;52.972;6.482;2023-04-22T05:50:35;8.07;;;6.70;;
57217;SDS011;43078;52.972;6.482;2023-04-22T05:53:01;8.15;;;6.60;;
57217;SDS011;43078;52.972;6.482;2023-04-22T05:55:26;8.35;;;6.50;;
57217;SDS011;43078;52.972;6.482;2023-04-22T05:57:52;8.77;;;6.45;;
57217;SDS011;43078;52.972;6.482;2023-04-22T06:00:18;8.48;;;6.78;;
57217;SDS011;43078;52.972;6.482;2023-04-22T06:02:43;9.00;;;6.47;;
57217;SDS011;43078;52.972;6.482;2023-04-22T06:05:09;8.27;;;6.55;;
57217;SDS011;43078;52.972;6.482;2023-04-22T06:07:37;7.63;;;5.97;;
57217;SDS011;43078;52.972;6.482;2023-04-22T06:10:04;9.00;;;5.85;;
57217;SDS011;43078;52.972;6.482;2023-04-22T06:12:31;9.05;;;7.05;;
57217;SDS011;43078;52.972;6.482;2023-04-22T06:14:57;10.32;;;6.50;;
57217;SDS011;43078;52.972;6.482;2023-04-22T06:17:23;12.48;;;8.15;;
57217;SDS011;43078;52.972;6.482;2023-04-22T06:19:48;11.75;;;8.50;;
57217;SDS011;43078;52.972;6.482;2023-04-22T06:22:14;8.80;;;6.90;;
57217;SDS011;43078;52.972;6.482;2023-04-22T06:24:40;11.13;;;7.43;;
57217;SDS011;43078;52.972;6.482;2023-04-22T06:27:05;10.93;;;8.10;;
57217;SDS011;43078;52.972;6.482;2023-04-22T06:29:31;10.40;;;7.95;;
57217;SDS011;43078;52.972;6.482;2023-04-22T06:31:56;12.07;;;8.02;;
57217;SDS011;43078;52.972;6.482;2023-04-22T06:34:22;10.85;;;8.55;;
57217;SDS011;43078;52.972;6.482;2023-04-22T06:36:48;10.10;;;8.18;;
57217;SDS011;43078;52.972;6.482;2023-04-22T06:39:15;10.85;;;8.85;;
57217;SDS011;43078;52.972;6.482;2023-04-22T06:41:40;10.70;;;9.00;;
57217;SDS011;43078;52.972;6.482;2023-04-22T06:44:08;11.75;;;9.75;;
57217;SDS011;43078;52.972;6.482;2023-04-22T06:46:33;11.18;;;9.35;;
57217;SDS011;43078;52.972;6.482;2023-04-22T06:49:00;12.75;;;9.73;;
57217;SDS011;43078;52.972;6.482;2023-04-22T06:51:25;12.88;;;9.95;;
57217;SDS011;43078;52.972;6.482;2023-04-22T06:53:51;12.77;;;10.52;;
57217;SDS011;43078;52.972;6.482;2023-04-22T06:56:16;12.95;;;9.10;;
57217;SDS011;43078;52.972;6.482;2023-04-22T06:58:42;14.15;;;10.65;;
57217;SDS011;43078;52.972;6.482;2023-04-22T07:01:08;12.45;;;10.27;;
57217;SDS011;43078;52.972;6.482;2023-04-22T07:03:34;15.65;;;11.90;;
57217;SDS011;43078;52.972;6.482;2023-04-22T07:06:00;14.68;;;12.55;;
57217;SDS011;43078;52.972;6.482;2023-04-22T07:08:26;15.68;;;13.40;;
57217;SDS011;43078;52.972;6.482;2023-04-22T07:10:51;17.95;;;13.63;;
57217;SDS011;43078;52.972;6.482;2023-04-22T07:13:17;10.95;;;9.10;;
57217;SDS011;43078;52.972;6.482;2023-04-22T07:15:42;14.40;;;11.45;;
57217;SDS011;43078;52.972;6.482;2023-04-22T07:18:10;13.73;;;10.70;;
57217;SDS011;43078;52.972;6.482;2023-04-22T07:20:35;14.40;;;12.82;;
57217;SDS011;43078;52.972;6.482;2023-04-22T07:23:01;16.45;;;13.68;;
57217;SDS011;43078;52.972;6.482;2023-04-22T07:25:27;16.30;;;11.93;;
57217;SDS011;43078;52.972;6.482;2023-04-22T07:27:52;19.42;;;14.23;;
57217;SDS011;43078;52.972;6.482;2023-04-22T07:30:18;13.85;;;11.40;;
57217;SDS011;43078;52.972;6.482;2023-04-22T07:32:43;13.07;;;11.55;;
57217;SDS011;43078;52.972;6.482;2023-04-22T07:35:09;11.93;;;10.60;;
57217;SDS011;43078;52.972;6.482;2023-04-22T07:37:35;14.02;;;12.15;;
57217;SDS011;43078;52.972;6.482;2023-04-22T07:40:00;11.85;;;10.38;;
57217;SDS011;43078;52.972;6.482;2023-04-22T07:42:26;13.35;;;11.95;;
57217;SDS011;43078;52.972;6.482;2023-04-22T07:44:51;17.23;;;14.38;;
57217;SDS011;43078;52.972;6.482;2023-04-22T07:47:17;16.95;;;13.73;;
57217;SDS011;43078;52.972;6.482;2023-04-22T07:49:43;14.95;;;13.32;;
57217;SDS011;43078;52.972;6.482;2023-04-22T07:52:09;17.42;;;13.82;;
57217;SDS011;43078;52.972;6.482;2023-04-22T07:54:35;14.75;;;11.98;;
57217;SDS011;43078;52.972;6.482;2023-04-22T07:57:00;16.52;;;12.45;;
57217;SDS011;43078;52.972;6.482;2023-04-22T07:59:26;14.65;;;12.75;;
57217;SDS011;43078;52.972;6.482;2023-04-22T08:01:51;13.90;;;11.68;;
57217;SDS011;43078;52.972;6.482;2023-04-22T08:04:18;15.10;;;12.05;;
57217;SDS011;43078;52.972;6.482;2023-04-22T08:06:46;14.98;;;11.88;;
57217;SDS011;43078;52.972;6.482;2023-04-22T08:09:12;13.43;;;10.95;;
57217;SDS011;43078;52.972;6.482;2023-04-22T08:11:37;14.13;;;12.50;;
57217;SDS011;43078;52.972;6.482;2023-04-22T08:14:03;16.38;;;13.65;;
57217;SDS011;43078;52.972;6.482;2023-04-22T08:16:29;14.88;;;12.80;;
57217;SDS011;43078;52.972;6.482;2023-04-22T08:18:54;14.48;;;12.45;;
57217;SDS011;43078;52.972;6.482;2023-04-22T08:21:21;15.50;;;11.77;;
57217;SDS011;43078;52.972;6.482;2023-04-22T08:23:47;16.50;;;12.23;;
57217;SDS011;43078;52.972;6.482;2023-04-22T08:26:12;17.13;;;12.20;;
57217;SDS011;43078;52.972;6.482;2023-04-22T08:28:40;14.75;;;12.63;;
57217;SDS011;43078;52.972;6.482;2023-04-22T08:31:06;15.05;;;11.75;;
57217;SDS011;43078;52.972;6.482;2023-04-22T08:33:34;16.58;;;12.65;;
57217;SDS011;43078;52.972;6.482;2023-04-22T08:35:59;15.52;;;12.45;;
57217;SDS011;43078;52.972;6.482;2023-04-22T08:38:27;15.63;;;12.02;;
57217;SDS011;43078;52.972;6.482;2023-04-22T08:40:55;18.13;;;14.23;;
57217;SDS011;43078;52.972;6.482;2023-04-22T08:43:21;17.73;;;11.15;;
57217;SDS011;43078;52.972;6.482;2023-04-22T08:45:47;14.25;;;11.48;;
57217;SDS011;43078;52.972;6.482;2023-04-22T08:48:13;15.25;;;11.65;;
57217;SDS011;43078;52.972;6.482;2023-04-22T08:50:40;15.45;;;11.45;;
57217;SDS011;43078;52.972;6.482;2023-04-22T08:53:06;14.13;;;10.95;;
57217;SDS011;43078;52.972;6.482;2023-04-22T08:55:32;12.80;;;11.02;;
57217;SDS011;43078;52.972;6.482;2023-04-22T08:57:59;22.42;;;11.23;;
57217;SDS011;43078;52.972;6.482;2023-04-22T09:00:25;12.48;;;10.77;;
57217;SDS011;43078;52.972;6.482;2023-04-22T09:02:51;13.32;;;10.23;;
57217;SDS011;43078;52.972;6.482;2023-04-22T09:05:18;13.25;;;10.00;;
57217;SDS011;43078;52.972;6.482;2023-04-22T09:07:46;12.68;;;10.45;;
57217;SDS011;43078;52.972;6.482;2023-04-22T09:10:12;14.85;;;11.35;;
57217;SDS011;43078;52.972;6.482;2023-04-22T09:12:39;12.32;;;10.45;;
57217;SDS011;43078;52.972;6.482;2023-04-22T09:15:06;12.50;;;10.05;;
57217;SDS011;43078;52.972;6.482;2023-04-22T09:17:33;11.25;;;9.73;;
57217;SDS011;43078;52.972;6.482;2023-04-22T09:20:02;11.48;;;9.65;;
57217;SDS011;43078;52.972;6.482;2023-04-22T09:22:36;11.40;;;9.18;;
57217;SDS011;43078;52.972;6.482;2023-04-22T09:25:04;11.95;;;9.25;;
57217;SDS011;43078;52.972;6.482;2023-04-22T09:27:30;10.95;;;9.63;;
57217;SDS011;43078;52.972;6.482;2023-04-22T09:29:57;13.27;;;9.80;;
57217;SDS011;43078;52.972;6.482;2023-04-22T09:32:24;14.30;;;9.10;;
57217;SDS011;43078;52.972;6.482;2023-04-22T09:34:51;11.98;;;9.40;;
57217;SDS011;43078;52.972;6.482;2023-04-22T09:37:23;11.60;;;9.10;;
57217;SDS011;43078;52.972;6.482;2023-04-22T09:39:49;10.77;;;9.52;;
57217;SDS011;43078;52.972;6.482;2023-04-22T09:42:16;11.75;;;8.88;;
57217;SDS011;43078;52.972;6.482;2023-04-22T09:44:43;11.70;;;9.02;;
57217;SDS011;43078;52.972;6.482;2023-04-22T09:47:18;11.38;;;8.68;;
57217;SDS011;43078;52.972;6.482;2023-04-22T09:49:45;9.80;;;8.70;;
57217;SDS011;43078;52.972;6.482;2023-04-22T09:52:20;10.98;;;8.98;;
57217;SDS011;43078;52.972;6.482;2023-04-22T09:54:50;11.15;;;8.98;;
57217;SDS011;43078;52.972;6.482;2023-04-22T09:57:17;9.43;;;8.02;;
57217;SDS011;43078;52.972;6.482;2023-04-22T09:59:42;10.15;;;8.57;;
57217;SDS011;43078;52.972;6.482;2023-04-22T10:02:08;10.38;;;8.20;;
57217;SDS011;43078;52.972;6.482;2023-04-22T10:04:34;9.85;;;8.23;;
57217;SDS011;43078;52.972;6.482;2023-04-22T10:07:00;12.68;;;9.02;;
57217;SDS011;43078;52.972;6.482;2023-04-22T10:09:28;10.00;;;8.05;;
57217;SDS011;43078;52.972;6.482;2023-04-22T10:11:55;9.65;;;7.63;;
57217;SDS011;43078;52.972;6.482;2023-04-22T10:14:24;10.98;;;8.30;;
57217;SDS011;43078;52.972;6.482;2023-04-22T10:16:51;13.10;;;7.78;;
57217;SDS011;43078;52.972;6.482;2023-04-22T10:19:23;10.13;;;8.27;;
57217;SDS011;43078;52.972;6.482;2023-04-22T10:21:51;10.27;;;8.25;;
57217;SDS011;43078;52.972;6.482;2023-04-22T10:24:27;11.30;;;7.97;;
57217;SDS011;43078;52.972;6.482;2023-04-22T10:26:58;12.35;;;8.07;;
57217;SDS011;43078;52.972;6.482;2023-04-22T10:29:34;9.20;;;7.97;;
57217;SDS011;43078;52.972;6.482;2023-04-22T10:34:42;10.52;;;7.40;;
57217;SDS011;43078;52.972;6.482;2023-04-22T10:37:09;10.07;;;7.70;;
57217;SDS011;43078;52.972;6.482;2023-04-22T10:39:36;10.75;;;7.82;;
57217;SDS011;43078;52.972;6.482;2023-04-22T10:44:47;8.93;;;8.00;;
57217;SDS011;43078;52.972;6.482;2023-04-22T10:47:26;9.98;;;7.85;;
57217;SDS011;43078;52.972;6.482;2023-04-22T10:52:58;8.63;;;7.28;;
57217;SDS011;43078;52.972;6.482;2023-04-22T10:58:24;10.15;;;7.97;;
57217;SDS011;43078;52.972;6.482;2023-04-22T11:00:51;10.27;;;7.57;;
57217;SDS011;43078;52.972;6.482;2023-04-22T11:03:28;11.15;;;7.68;;
57217;SDS011;43078;52.972;6.482;2023-04-22T11:06:13;8.88;;;7.75;;
57217;SDS011;43078;52.972;6.482;2023-04-22T11:08:42;10.67;;;8.20;;
57217;SDS011;43078;52.972;6.482;2023-04-22T11:11:09;9.48;;;7.15;;
57217;SDS011;43078;52.972;6.482;2023-04-22T11:13:37;8.35;;;6.63;;
57217;SDS011;43078;52.972;6.482;2023-04-22T11:16:07;9.48;;;7.63;;
57217;SDS011;43078;52.972;6.482;2023-04-22T11:18:34;9.75;;;7.93;;
57217;SDS011;43078;52.972;6.482;2023-04-22T11:21:06;8.38;;;6.80;;
57217;SDS011;43078;52.972;6.482;2023-04-22T11:23:32;9.80;;;6.72;;
57217;SDS011;43078;52.972;6.482;2023-04-22T11:25:59;8.20;;;7.07;;
57217;SDS011;43078;52.972;6.482;2023-04-22T11:28:29;8.68;;;6.47;;
57217;SDS011;43078;52.972;6.482;2023-04-22T11:31:02;8.95;;;6.43;;
57217;SDS011;43078;52.972;6.482;2023-04-22T11:33:35;8.95;;;6.82;;
57217;SDS011;43078;52.972;6.482;2023-04-22T11:36:02;8.95;;;6.53;;
57217;SDS011;43078;52.972;6.482;2023-04-22T11:38:28;10.55;;;6.82;;
57217;SDS011;43078;52.972;6.482;2023-04-22T11:40:54;7.95;;;6.82;;
57217;SDS011;43078;52.972;6.482;2023-04-22T11:43:22;11.90;;;7.05;;
57217;SDS011;43078;52.972;6.482;2023-04-22T11:45:48;10.07;;;7.00;;
57217;SDS011;43078;52.972;6.482;2023-04-22T11:48:14;8.52;;;6.47;;
57217;SDS011;43078;52.972;6.482;2023-04-22T11:50:40;8.85;;;6.90;;
57217;SDS011;43078;52.972;6.482;2023-04-22T11:53:18;7.38;;;5.95;;
57217;SDS011;43078;52.972;6.482;2023-04-22T11:55:46;8.27;;;6.43;;
57217;SDS011;43078;52.972;6.482;2023-04-22T11:58:19;10.45;;;6.47;;
57217;SDS011;43078;52.972;6.482;2023-04-22T12:00:49;8.75;;;5.90;;
57217;SDS011;43078;52.972;6.482;2023-04-22T12:03:19;8.15;;;6.25;;
57217;SDS011;43078;52.972;6.482;2023-04-22T12:05:50;8.93;;;7.05;;
57217;SDS011;43078;52.972;6.482;2023-04-22T12:11:04;12.13;;;6.55;;
57217;SDS011;43078;52.972;6.482;2023-04-22T12:13:39;7.75;;;6.22;;
57217;SDS011;43078;52.972;6.482;2023-04-22T12:16:10;8.80;;;7.10;;
57217;SDS011;43078;52.972;6.482;2023-04-22T12:18:38;8.45;;;6.80;;
57217;SDS011;43078;52.972;6.482;2023-04-22T12:23:44;10.15;;;7.03;;
57217;SDS011;43078;52.972;6.482;2023-04-22T12:26:14;8.00;;;6.70;;
57217;SDS011;43078;52.972;6.482;2023-04-22T12:28:41;8.93;;;6.60;;
57217;SDS011;43078;52.972;6.482;2023-04-22T12:31:08;11.07;;;7.32;;
57217;SDS011;43078;52.972;6.482;2023-04-22T12:33:34;10.10;;;7.45;;
57217;SDS011;43078;52.972;6.482;2023-04-22T12:36:01;8.35;;;7.05;;
57217;SDS011;43078;52.972;6.482;2023-04-22T12:38:27;11.43;;;7.75;;
57217;SDS011;43078;52.972;6.482;2023-04-22T12:40:53;8.82;;;7.30;;
57217;SDS011;43078;52.972;6.482;2023-04-22T12:43:19;10.38;;;7.40;;
57217;SDS011;43078;52.972;6.482;2023-04-22T12:45:44;10.50;;;6.88;;
57217;SDS011;43078;52.972;6.482;2023-04-22T12:48:10;12.50;;;7.13;;
57217;SDS011;43078;52.972;6.482;2023-04-22T12:50:36;13.70;;;7.90;;
57217;SDS011;43078;52.972;6.482;2023-04-22T12:53:02;9.63;;;7.38;;
57217;SDS011;43078;52.972;6.482;2023-04-22T12:55:28;12.07;;;7.35;;
57217;SDS011;43078;52.972;6.482;2023-04-22T12:57:53;10.43;;;7.65;;
57217;SDS011;43078;52.972;6.482;2023-04-22T13:00:20;9.27;;;7.47;;
57217;SDS011;43078;52.972;6.482;2023-04-22T13:02:47;8.93;;;7.32;;
57217;SDS011;43078;52.972;6.482;2023-04-22T13:05:14;10.48;;;7.10;;
57217;SDS011;43078;52.972;6.482;2023-04-22T13:07:41;10.40;;;7.43;;
57217;SDS011;43078;52.972;6.482;2023-04-22T13:10:07;8.70;;;7.20;;
57217;SDS011;43078;52.972;6.482;2023-04-22T13:12:34;9.43;;;7.72;;
57217;SDS011;43078;52.972;6.482;2023-04-22T13:15:00;9.77;;;7.32;;
57217;SDS011;43078;52.972;6.482;2023-04-22T13:17:27;9.93;;;7.55;;
57217;SDS011;43078;52.972;6.482;2023-04-22T13:19:53;12.38;;;7.38;;
57217;SDS011;43078;52.972;6.482;2023-04-22T13:22:18;10.07;;;7.47;;
57217;SDS011;43078;52.972;6.482;2023-04-22T13:24:44;9.95;;;7.50;;
57217;SDS011;43078;52.972;6.482;2023-04-22T13:27:10;11.48;;;7.38;;
57217;SDS011;43078;52.972;6.482;2023-04-22T13:29:36;9.27;;;7.60;;
57217;SDS011;43078;52.972;6.482;2023-04-22T13:32:03;9.13;;;7.55;;
57217;SDS011;43078;52.972;6.482;2023-04-22T13:34:30;10.27;;;8.15;;
57217;SDS011;43078;52.972;6.482;2023-04-22T13:36:55;9.70;;;7.90;;
57217;SDS011;43078;52.972;6.482;2023-04-22T13:39:21;10.70;;;7.65;;
57217;SDS011;43078;52.972;6.482;2023-04-22T13:41:48;9.10;;;7.35;;
57217;SDS011;43078;52.972;6.482;2023-04-22T13:44:14;12.65;;;8.40;;
57217;SDS011;43078;52.972;6.482;2023-04-22T13:46:40;9.75;;;8.40;;
57217;SDS011;43078;52.972;6.482;2023-04-22T13:49:06;10.65;;;8.15;;
57217;SDS011;43078;52.972;6.482;2023-04-22T13:51:32;9.10;;;7.20;;
57217;SDS011;43078;52.972;6.482;2023-04-22T13:53:58;10.30;;;8.25;;
57217;SDS011;43078;52.972;6.482;2023-04-22T13:56:24;9.88;;;7.70;;
57217;SDS011;43078;52.972;6.482;2023-04-22T13:58:51;10.10;;;6.18;;
57217;SDS011;43078;52.972;6.482;2023-04-22T14:01:17;9.45;;;7.80;;
57217;SDS011;43078;52.972;6.482;2023-04-22T14:03:43;9.90;;;6.63;;
57217;SDS011;43078;52.972;6.482;2023-04-22T14:06:09;10.13;;;6.40;;
57217;SDS011;43078;52.972;6.482;2023-04-22T14:08:35;11.05;;;6.70;;
57217;SDS011;43078;52.972;6.482;2023-04-22T14:11:02;12.23;;;7.18;;
57217;SDS011;43078;52.972;6.482;2023-04-22T14:13:29;10.20;;;7.45;;
57217;SDS011;43078;52.972;6.482;2023-04-22T14:15:55;9.10;;;7.13;;
57217;SDS011;43078;52.972;6.482;2023-04-22T14:18:21;10.27;;;8.07;;
57217;SDS011;43078;52.972;6.482;2023-04-22T14:20:47;10.90;;;7.82;;
57217;SDS011;43078;52.972;6.482;2023-04-22T14:23:14;9.45;;;7.63;;
57217;SDS011;43078;52.972;6.482;2023-04-22T14:25:40;10.25;;;7.85;;
57217;SDS011;43078;52.972;6.482;2023-04-22T14:28:06;12.07;;;8.65;;
57217;SDS011;43078;52.972;6.482;2023-04-22T14:30:35;10.00;;;8.63;;
57217;SDS011;43078;52.972;6.482;2023-04-22T14:33:03;10.13;;;8.50;;
57217;SDS011;43078;52.972;6.482;2023-04-22T14:35:40;12.00;;;10.18;;
57217;SDS011;43078;52.972;6.482;2023-04-22T14:38:15;14.07;;;9.23;;
57217;SDS011;43078;52.972;6.482;2023-04-22T14:41:35;12.07;;;9.85;;
57217;SDS011;43078;52.972;6.482;2023-04-22T14:44:01;12.30;;;8.80;;
57217;SDS011;43078;52.972;6.482;2023-04-22T14:46:28;12.32;;;9.48;;
57217;SDS011;43078;52.972;6.482;2023-04-22T14:50:02;11.13;;;9.05;;
57217;SDS011;43078;52.972;6.482;2023-04-22T14:52:51;15.30;;;9.65;;
57217;SDS011;43078;52.972;6.482;2023-04-22T14:55:26;11.10;;;9.35;;